Main page
METAR-TAF:

METAR-TAF

Airports :

Badajoz, Spain

Badajoz Airport

latitude: 38-53N, longitude: 006-49W, elevation: 185 m

Current weather observation

The report was made 28 minutes ago, at 07:00 UTC
Calm wind
Temperature 2°C
Humidity 87%
Pressure 1016 hPa
Visibility 10 km or more
no clouds below 1500 m and no cumulonimbus

METAR: LEBZ 220700Z 00000KT CAVOK 02/00 Q1016

Time: 08:28 (07:28 UTC)

Forecast

The report was made 2 hours and 28 minutes ago, at 05:00 UTC
Forecast valid from 22 at 06 UTC to 23 at 06 UTC
Wind 6 kt from the East
Visibility 10 km or more
no clouds below 1500 m and no cumulonimbus

TAF: LEBZ 220500Z 2206/2306 09006KT CAVOK TX24/2215Z TN02/2207Z

Weather observations and forecasts of more than 4000 airports (METAR and TAF reports).

The available stations are represented by yellow and red dots on the map.

Hover mouse over dot to see the name of the station.

Then click to see weather observations and forecasts.

To change the map : click on the green buttons with a black cross to zoom in, on the green button with a dash to zoom out, or on the green arrows for adjacent maps.


METAR-TAF: